sensor_id;sensor_type;location;lat;lon;timestamp;temperature;humidity
74224;SHT31;62585;49.706;18.216;2023-08-24T00:01:17;20.37;75.43
74224;SHT31;62585;49.706;18.216;2023-08-24T00:03:44;20.22;75.15
74224;SHT31;62585;49.706;18.216;2023-08-24T00:06:11;20.19;75.75
74224;SHT31;62585;49.706;18.216;2023-08-24T00:08:37;20.09;76.41
74224;SHT31;62585;49.706;18.216;2023-08-24T00:11:03;20.16;76.36
74224;SHT31;62585;49.706;18.216;2023-08-24T00:13:30;19.96;76.68
74224;SHT31;62585;49.706;18.216;2023-08-24T00:15:55;19.97;76.78
74224;SHT31;62585;49.706;18.216;2023-08-24T00:18:21;19.86;76.96
74224;SHT31;62585;49.706;18.216;2023-08-24T00:20:48;19.92;76.94
74224;SHT31;62585;49.706;18.216;2023-08-24T00:23:14;19.79;77.80
74224;SHT31;62585;49.706;18.216;2023-08-24T00:25:40;19.79;77.80
74224;SHT31;62585;49.706;18.216;2023-08-24T00:28:08;19.85;77.45
74224;SHT31;62585;49.706;18.216;2023-08-24T00:30:34;19.99;77.11
74224;SHT31;62585;49.706;18.216;2023-08-24T00:33:00;19.89;77.02
74224;SHT31;62585;49.706;18.216;2023-08-24T00:35:26;19.81;76.65
74224;SHT31;62585;49.706;18.216;2023-08-24T00:37:51;19.86;76.64
74224;SHT31;62585;49.706;18.216;2023-08-24T00:40:17;20.03;75.82
74224;SHT31;62585;49.706;18.216;2023-08-24T00:42:45;20.10;75.44
74224;SHT31;62585;49.706;18.216;2023-08-24T00:45:14;19.89;75.93
74224;SHT31;62585;49.706;18.216;2023-08-24T00:47:44;19.79;76.07
74224;SHT31;62585;49.706;18.216;2023-08-24T00:50:10;19.87;75.80
74224;SHT31;62585;49.706;18.216;2023-08-24T00:52:41;19.68;76.81
74224;SHT31;62585;49.706;18.216;2023-08-24T00:55:08;19.59;77.57
74224;SHT31;62585;49.706;18.216;2023-08-24T00:57:40;19.61;77.52
74224;SHT31;62585;49.706;18.216;2023-08-24T01:00:07;19.58;77.79
74224;SHT31;62585;49.706;18.216;2023-08-24T01:02:37;19.39;78.36
74224;SHT31;62585;49.706;18.216;2023-08-24T01:05:04;19.59;77.69
74224;SHT31;62585;49.706;18.216;2023-08-24T01:07:31;19.65;77.31
74224;SHT31;62585;49.706;18.216;2023-08-24T01:09:56;19.65;77.14
74224;SHT31;62585;49.706;18.216;2023-08-24T01:12:43;19.50;77.38
74224;SHT31;62585;49.706;18.216;2023-08-24T01:17:58;19.34;77.14
74224;SHT31;62585;49.706;18.216;2023-08-24T01:20:26;19.24;77.70
74224;SHT31;62585;49.706;18.216;2023-08-24T01:28:01;19.02;78.15
74224;SHT31;62585;49.706;18.216;2023-08-24T01:30:29;19.04;78.04
74224;SHT31;62585;49.706;18.216;2023-08-24T01:32:56;19.11;77.55
74224;SHT31;62585;49.706;18.216;2023-08-24T01:35:22;19.21;77.16
74224;SHT31;62585;49.706;18.216;2023-08-24T01:37:48;19.31;76.87
74224;SHT31;62585;49.706;18.216;2023-08-24T01:40:22;19.21;77.44
74224;SHT31;62585;49.706;18.216;2023-08-24T01:42:58;19.27;77.42
74224;SHT31;62585;49.706;18.216;2023-08-24T01:45:28;19.20;77.24
74224;SHT31;62585;49.706;18.216;2023-08-24T01:47:55;19.09;77.51
74224;SHT31;62585;49.706;18.216;2023-08-24T01:50:22;19.03;77.81
74224;SHT31;62585;49.706;18.216;2023-08-24T01:52:49;18.99;78.01
74224;SHT31;62585;49.706;18.216;2023-08-24T01:55:18;19.00;77.76
74224;SHT31;62585;49.706;18.216;2023-08-24T01:57:44;19.17;77.17
74224;SHT31;62585;49.706;18.216;2023-08-24T02:00:10;19.11;77.11
74224;SHT31;62585;49.706;18.216;2023-08-24T02:02:36;18.89;78.10
74224;SHT31;62585;49.706;18.216;2023-08-24T02:05:02;18.77;78.50
74224;SHT31;62585;49.706;18.216;2023-08-24T02:07:29;18.80;78.25
74224;SHT31;62585;49.706;18.216;2023-08-24T02:09:54;18.72;78.45
74224;SHT31;62585;49.706;18.216;2023-08-24T02:15:23;18.79;78.01
74224;SHT31;62585;49.706;18.216;2023-08-24T02:17:49;18.73;78.24
74224;SHT31;62585;49.706;18.216;2023-08-24T02:20:15;18.68;78.32
74224;SHT31;62585;49.706;18.216;2023-08-24T02:22:41;18.58;78.43
74224;SHT31;62585;49.706;18.216;2023-08-24T02:25:08;18.66;77.97
74224;SHT31;62585;49.706;18.216;2023-08-24T02:27:33;18.52;78.25
74224;SHT31;62585;49.706;18.216;2023-08-24T02:29:59;18.73;77.82
74224;SHT31;62585;49.706;18.216;2023-08-24T02:32:26;18.69;77.91
74224;SHT31;62585;49.706;18.216;2023-08-24T02:34:51;18.72;77.96
74224;SHT31;62585;49.706;18.216;2023-08-24T02:37:17;18.52;78.48
74224;SHT31;62585;49.706;18.216;2023-08-24T02:39:43;18.58;78.12
74224;SHT31;62585;49.706;18.216;2023-08-24T02:42:09;18.63;77.95
74224;SHT31;62585;49.706;18.216;2023-08-24T02:44:35;18.55;78.12
74224;SHT31;62585;49.706;18.216;2023-08-24T02:47:01;18.41;78.32
74224;SHT31;62585;49.706;18.216;2023-08-24T02:49:26;18.44;78.02
74224;SHT31;62585;49.706;18.216;2023-08-24T02:51:53;18.48;78.13
74224;SHT31;62585;49.706;18.216;2023-08-24T02:54:18;18.40;78.09
74224;SHT31;62585;49.706;18.216;2023-08-24T02:56:44;18.49;78.11
74224;SHT31;62585;49.706;18.216;2023-08-24T02:59:11;18.42;77.89
74224;SHT31;62585;49.706;18.216;2023-08-24T03:01:37;18.21;78.57
74224;SHT31;62585;49.706;18.216;2023-08-24T03:04:04;18.37;77.78
74224;SHT31;62585;49.706;18.216;2023-08-24T03:06:30;18.37;77.76
74224;SHT31;62585;49.706;18.216;2023-08-24T03:08:56;18.42;77.77
74224;SHT31;62585;49.706;18.216;2023-08-24T03:11:22;18.45;77.74
74224;SHT31;62585;49.706;18.216;2023-08-24T03:13:48;18.34;78.02
74224;SHT31;62585;49.706;18.216;2023-08-24T03:16:14;18.21;78.54
74224;SHT31;62585;49.706;18.216;2023-08-24T03:18:39;18.23;78.34
74224;SHT31;62585;49.706;18.216;2023-08-24T03:21:06;18.21;78.66
74224;SHT31;62585;49.706;18.216;2023-08-24T03:23:32;18.23;78.43
74224;SHT31;62585;49.706;18.216;2023-08-24T03:25:58;18.32;78.37
74224;SHT31;62585;49.706;18.216;2023-08-24T03:28:23;18.28;78.22
74224;SHT31;62585;49.706;18.216;2023-08-24T03:30:52;18.42;77.57
74224;SHT31;62585;49.706;18.216;2023-08-24T03:33:21;18.34;77.43
74224;SHT31;62585;49.706;18.216;2023-08-24T03:35:47;18.21;77.49
74224;SHT31;62585;49.706;18.216;2023-08-24T03:38:13;18.17;77.44
74224;SHT31;62585;49.706;18.216;2023-08-24T03:40:39;18.13;77.56
74224;SHT31;62585;49.706;18.216;2023-08-24T03:43:05;18.03;77.78
74224;SHT31;62585;49.706;18.216;2023-08-24T03:45:31;18.07;78.08
74224;SHT31;62585;49.706;18.216;2023-08-24T03:47:57;18.15;77.67
74224;SHT31;62585;49.706;18.216;2023-08-24T03:50:23;18.14;77.72
74224;SHT31;62585;49.706;18.216;2023-08-24T03:52:52;18.03;78.07
74224;SHT31;62585;49.706;18.216;2023-08-24T03:55:20;18.18;77.56
74224;SHT31;62585;49.706;18.216;2023-08-24T03:57:46;18.03;77.86
74224;SHT31;62585;49.706;18.216;2023-08-24T04:00:12;18.00;78.05
74224;SHT31;62585;49.706;18.216;2023-08-24T04:02:43;17.91;78.14
74224;SHT31;62585;49.706;18.216;2023-08-24T04:05:09;18.00;77.89
74224;SHT31;62585;49.706;18.216;2023-08-24T04:07:35;17.90;77.82
74224;SHT31;62585;49.706;18.216;2023-08-24T04:10:08;17.89;78.08
74224;SHT31;62585;49.706;18.216;2023-08-24T04:12:34;17.97;77.62
74224;SHT31;62585;49.706;18.216;2023-08-24T04:15:01;17.73;78.04
74224;SHT31;62585;49.706;18.216;2023-08-24T04:17:27;17.70;78.58
74224;SHT31;62585;49.706;18.216;2023-08-24T04:19:52;17.82;77.88
74224;SHT31;62585;49.706;18.216;2023-08-24T04:22:18;17.72;77.54
74224;SHT31;62585;49.706;18.216;2023-08-24T04:24:44;17.80;77.52
74224;SHT31;62585;49.706;18.216;2023-08-24T04:27:10;17.87;77.23
74224;SHT31;62585;49.706;18.216;2023-08-24T04:29:35;17.76;77.70
74224;SHT31;62585;49.706;18.216;2023-08-24T04:32:01;17.75;77.78
74224;SHT31;62585;49.706;18.216;2023-08-24T04:34:27;17.86;77.69
74224;SHT31;62585;49.706;18.216;2023-08-24T04:36:53;17.91;77.60
74224;SHT31;62585;49.706;18.216;2023-08-24T04:39:20;18.04;77.37
74224;SHT31;62585;49.706;18.216;2023-08-24T04:41:45;18.08;77.12
74224;SHT31;62585;49.706;18.216;2023-08-24T04:44:11;18.21;76.81
74224;SHT31;62585;49.706;18.216;2023-08-24T04:46:37;18.01;77.23
74224;SHT31;62585;49.706;18.216;2023-08-24T04:49:03;18.04;78.08
74224;SHT31;62585;49.706;18.216;2023-08-24T04:51:29;18.03;77.85
74224;SHT31;62585;49.706;18.216;2023-08-24T04:53:55;18.25;77.22
74224;SHT31;62585;49.706;18.216;2023-08-24T04:56:20;18.28;77.18
74224;SHT31;62585;49.706;18.216;2023-08-24T04:58:56;18.28;77.66
74224;SHT31;62585;49.706;18.216;2023-08-24T05:01:23;17.80;79.14
74224;SHT31;62585;49.706;18.216;2023-08-24T05:03:51;18.13;78.41
74224;SHT31;62585;49.706;18.216;2023-08-24T05:06:18;18.31;77.89
74224;SHT31;62585;49.706;18.216;2023-08-24T05:08:46;18.32;77.69
74224;SHT31;62585;49.706;18.216;2023-08-24T05:11:20;18.27;78.22
74224;SHT31;62585;49.706;18.216;2023-08-24T05:13:46;18.40;78.07
74224;SHT31;62585;49.706;18.216;2023-08-24T05:16:12;18.24;78.60
74224;SHT31;62585;49.706;18.216;2023-08-24T05:18:39;18.27;79.07
74224;SHT31;62585;49.706;18.216;2023-08-24T05:21:05;18.52;78.46
74224;SHT31;62585;49.706;18.216;2023-08-24T05:23:34;18.70;78.09
74224;SHT31;62585;49.706;18.216;2023-08-24T05:26:01;18.76;77.94
74224;SHT31;62585;49.706;18.216;2023-08-24T05:28:28;18.89;77.90
74224;SHT31;62585;49.706;18.216;2023-08-24T05:30:54;19.00;77.72
74224;SHT31;62585;49.706;18.216;2023-08-24T05:33:22;19.13;77.64
74224;SHT31;62585;49.706;18.216;2023-08-24T05:35:49;19.16;77.99
74224;SHT31;62585;49.706;18.216;2023-08-24T05:38:15;19.34;77.82
74224;SHT31;62585;49.706;18.216;2023-08-24T05:40:47;19.44;77.70
74224;SHT31;62585;49.706;18.216;2023-08-24T05:43:13;19.64;77.20
74224;SHT31;62585;49.706;18.216;2023-08-24T05:45:39;19.72;77.09
74224;SHT31;62585;49.706;18.216;2023-08-24T05:48:06;19.43;77.77
74224;SHT31;62585;49.706;18.216;2023-08-24T05:50:33;19.28;78.16
74224;SHT31;62585;49.706;18.216;2023-08-24T05:52:59;19.18;77.87
74224;SHT31;62585;49.706;18.216;2023-08-24T05:55:24;19.45;77.65
74224;SHT31;62585;49.706;18.216;2023-08-24T05:57:50;19.85;76.58
74224;SHT31;62585;49.706;18.216;2023-08-24T06:00:16;19.64;76.77
74224;SHT31;62585;49.706;18.216;2023-08-24T06:02:42;19.92;76.56
74224;SHT31;62585;49.706;18.216;2023-08-24T06:05:08;20.16;75.86
74224;SHT31;62585;49.706;18.216;2023-08-24T06:07:35;20.16;75.43
74224;SHT31;62585;49.706;18.216;2023-08-24T06:10:00;20.20;75.75
74224;SHT31;62585;49.706;18.216;2023-08-24T06:12:26;20.41;74.84
74224;SHT31;62585;49.706;18.216;2023-08-24T06:14:52;20.60;74.52
74224;SHT31;62585;49.706;18.216;2023-08-24T06:17:18;20.63;74.06
74224;SHT31;62585;49.706;18.216;2023-08-24T06:19:43;20.67;74.51
74224;SHT31;62585;49.706;18.216;2023-08-24T06:22:09;20.89;74.27
74224;SHT31;62585;49.706;18.216;2023-08-24T06:24:35;20.96;74.11
74224;SHT31;62585;49.706;18.216;2023-08-24T06:27:01;21.13;74.25
74224;SHT31;62585;49.706;18.216;2023-08-24T06:29:28;21.42;73.56
74224;SHT31;62585;49.706;18.216;2023-08-24T06:31:55;21.30;74.13
74224;SHT31;62585;49.706;18.216;2023-08-24T06:34:21;20.99;74.82
74224;SHT31;62585;49.706;18.216;2023-08-24T06:36:46;20.95;75.35
74224;SHT31;62585;49.706;18.216;2023-08-24T06:39:13;21.18;74.70
74224;SHT31;62585;49.706;18.216;2023-08-24T06:41:39;21.66;74.12
74224;SHT31;62585;49.706;18.216;2023-08-24T06:44:04;21.93;71.55
74224;SHT31;62585;49.706;18.216;2023-08-24T06:46:31;21.87;71.34
74224;SHT31;62585;49.706;18.216;2023-08-24T06:48:57;21.50;71.41
74224;SHT31;62585;49.706;18.216;2023-08-24T06:51:23;21.33;71.73
74224;SHT31;62585;49.706;18.216;2023-08-24T06:53:48;21.54;71.88
74224;SHT31;62585;49.706;18.216;2023-08-24T06:56:14;21.93;72.51
74224;SHT31;62585;49.706;18.216;2023-08-24T06:58:47;22.25;71.13
74224;SHT31;62585;49.706;18.216;2023-08-24T07:01:13;22.56;70.33
74224;SHT31;62585;49.706;18.216;2023-08-24T07:03:39;22.66;69.70
74224;SHT31;62585;49.706;18.216;2023-08-24T07:06:06;22.79;69.65
74224;SHT31;62585;49.706;18.216;2023-08-24T07:08:33;22.94;69.11
74224;SHT31;62585;49.706;18.216;2023-08-24T07:10:59;23.11;68.75
74224;SHT31;62585;49.706;18.216;2023-08-24T07:13:24;23.27;67.98
74224;SHT31;62585;49.706;18.216;2023-08-24T07:15:52;23.32;67.66
74224;SHT31;62585;49.706;18.216;2023-08-24T07:18:17;23.42;68.43
74224;SHT31;62585;49.706;18.216;2023-08-24T07:20:43;23.39;65.37
74224;SHT31;62585;49.706;18.216;2023-08-24T07:23:09;23.39;65.52
74224;SHT31;62585;49.706;18.216;2023-08-24T07:25:35;23.61;65.96
74224;SHT31;62585;49.706;18.216;2023-08-24T07:28:01;23.56;66.14
74224;SHT31;62585;49.706;18.216;2023-08-24T07:30:28;23.46;66.31
74224;SHT31;62585;49.706;18.216;2023-08-24T07:32:54;23.63;66.08
74224;SHT31;62585;49.706;18.216;2023-08-24T07:35:21;23.76;65.52
74224;SHT31;62585;49.706;18.216;2023-08-24T07:37:47;23.65;66.01
74224;SHT31;62585;49.706;18.216;2023-08-24T07:40:14;24.06;68.46
74224;SHT31;62585;49.706;18.216;2023-08-24T07:42:47;24.21;64.60
74224;SHT31;62585;49.706;18.216;2023-08-24T07:45:13;23.87;63.20
74224;SHT31;62585;49.706;18.216;2023-08-24T07:47:40;24.04;63.49
74224;SHT31;62585;49.706;18.216;2023-08-24T07:50:08;24.21;63.27
74224;SHT31;62585;49.706;18.216;2023-08-24T07:52:34;24.17;62.77
74224;SHT31;62585;49.706;18.216;2023-08-24T07:54:59;24.44;62.64
74224;SHT31;62585;49.706;18.216;2023-08-24T07:57:28;24.72;61.73
74224;SHT31;62585;49.706;18.216;2023-08-24T07:59:54;24.93;60.31
74224;SHT31;62585;49.706;18.216;2023-08-24T08:02:20;24.83;58.42
74224;SHT31;62585;49.706;18.216;2023-08-24T08:04:46;25.16;58.36
74224;SHT31;62585;49.706;18.216;2023-08-24T08:07:12;25.34;58.50
74224;SHT31;62585;49.706;18.216;2023-08-24T08:09:38;25.48;56.63
74224;SHT31;62585;49.706;18.216;2023-08-24T08:12:04;25.63;54.67
74224;SHT31;62585;49.706;18.216;2023-08-24T08:14:30;25.70;55.26
74224;SHT31;62585;49.706;18.216;2023-08-24T08:16:56;25.91;55.42
74224;SHT31;62585;49.706;18.216;2023-08-24T08:19:22;26.06;54.49
74224;SHT31;62585;49.706;18.216;2023-08-24T08:21:50;26.18;53.73
74224;SHT31;62585;49.706;18.216;2023-08-24T08:24:16;26.33;52.85
74224;SHT31;62585;49.706;18.216;2023-08-24T08:26:42;26.46;52.40
74224;SHT31;62585;49.706;18.216;2023-08-24T08:29:08;26.49;46.64
74224;SHT31;62585;49.706;18.216;2023-08-24T08:31:34;26.22;46.36
74224;SHT31;62585;49.706;18.216;2023-08-24T08:34:01;26.28;48.59
74224;SHT31;62585;49.706;18.216;2023-08-24T08:36:30;26.53;50.07
74224;SHT31;62585;49.706;18.216;2023-08-24T08:38:58;26.63;48.01
74224;SHT31;62585;49.706;18.216;2023-08-24T08:41:27;26.86;46.61
74224;SHT31;62585;49.706;18.216;2023-08-24T08:43:56;26.44;45.24
74224;SHT31;62585;49.706;18.216;2023-08-24T08:46:22;26.43;47.31
74224;SHT31;62585;49.706;18.216;2023-08-24T08:48:48;26.78;48.98
74224;SHT31;62585;49.706;18.216;2023-08-24T08:51:16;26.94;47.73
74224;SHT31;62585;49.706;18.216;2023-08-24T08:53:43;27.11;47.92
74224;SHT31;62585;49.706;18.216;2023-08-24T08:56:09;27.39;49.03
74224;SHT31;62585;49.706;18.216;2023-08-24T08:58:36;27.41;46.68
74224;SHT31;62585;49.706;18.216;2023-08-24T09:01:04;27.52;46.19
74224;SHT31;62585;49.706;18.216;2023-08-24T09:03:31;27.52;46.36
74224;SHT31;62585;49.706;18.216;2023-08-24T09:05:58;27.56;47.06
74224;SHT31;62585;49.706;18.216;2023-08-24T09:08:27;27.59;45.86
74224;SHT31;62585;49.706;18.216;2023-08-24T09:10:54;27.52;48.89
74224;SHT31;62585;49.706;18.216;2023-08-24T09:13:21;27.79;50.08
74224;SHT31;62585;49.706;18.216;2023-08-24T09:15:46;27.67;48.25
74224;SHT31;62585;49.706;18.216;2023-08-24T09:18:12;27.98;48.51
74224;SHT31;62585;49.706;18.216;2023-08-24T09:20:38;28.22;46.09
74224;SHT31;62585;49.706;18.216;2023-08-24T09:23:04;28.21;46.36
74224;SHT31;62585;49.706;18.216;2023-08-24T09:25:29;28.32;46.57
74224;SHT31;62585;49.706;18.216;2023-08-24T09:28:01;28.39;45.01
74224;SHT31;62585;49.706;18.216;2023-08-24T09:30:30;28.05;44.02
74224;SHT31;62585;49.706;18.216;2023-08-24T09:33:02;28.10;44.16
74224;SHT31;62585;49.706;18.216;2023-08-24T09:35:28;28.32;45.33
74224;SHT31;62585;49.706;18.216;2023-08-24T09:37:54;28.45;45.61
74224;SHT31;62585;49.706;18.216;2023-08-24T09:40:24;28.24;43.78
74224;SHT31;62585;49.706;18.216;2023-08-24T09:42:51;28.45;44.42
74224;SHT31;62585;49.706;18.216;2023-08-24T09:45:17;28.62;43.93
74224;SHT31;62585;49.706;18.216;2023-08-24T09:47:49;28.80;43.78
74224;SHT31;62585;49.706;18.216;2023-08-24T09:50:16;28.72;44.72
74224;SHT31;62585;49.706;18.216;2023-08-24T09:52:42;28.66;44.21
74224;SHT31;62585;49.706;18.216;2023-08-24T09:55:09;29.10;44.61
74224;SHT31;62585;49.706;18.216;2023-08-24T09:57:38;29.24;44.00
74224;SHT31;62585;49.706;18.216;2023-08-24T10:00:09;29.06;44.79
74224;SHT31;62585;49.706;18.216;2023-08-24T10:02:50;28.87;40.72
74224;SHT31;62585;49.706;18.216;2023-08-24T10:05:23;28.93;41.66
74224;SHT31;62585;49.706;18.216;2023-08-24T10:07:54;28.86;41.95
74224;SHT31;62585;49.706;18.216;2023-08-24T10:10:21;29.25;43.04
74224;SHT31;62585;49.706;18.216;2023-08-24T10:12:57;29.25;41.58
74224;SHT31;62585;49.706;18.216;2023-08-24T10:15:26;29.54;43.89
74224;SHT31;62585;49.706;18.216;2023-08-24T10:17:52;29.28;41.24
74224;SHT31;62585;49.706;18.216;2023-08-24T10:20:22;29.11;39.49
74224;SHT31;62585;49.706;18.216;2023-08-24T10:22:48;29.17;44.09
74224;SHT31;62585;49.706;18.216;2023-08-24T10:25:16;29.34;42.08
74224;SHT31;62585;49.706;18.216;2023-08-24T10:27:44;29.27;39.90
74224;SHT31;62585;49.706;18.216;2023-08-24T10:30:12;29.27;40.96
74224;SHT31;62585;49.706;18.216;2023-08-24T10:32:39;29.65;43.29
74224;SHT31;62585;49.706;18.216;2023-08-24T10:35:05;29.59;39.25
74224;SHT31;62585;49.706;18.216;2023-08-24T10:37:32;29.21;40.31
74224;SHT31;62585;49.706;18.216;2023-08-24T10:39:59;29.44;41.25
74224;SHT31;62585;49.706;18.216;2023-08-24T10:42:26;29.44;39.83
74224;SHT31;62585;49.706;18.216;2023-08-24T10:44:52;29.35;39.86
74224;SHT31;62585;49.706;18.216;2023-08-24T10:47:19;29.42;40.22
74224;SHT31;62585;49.706;18.216;2023-08-24T10:52:23;29.34;38.75
74224;SHT31;62585;49.706;18.216;2023-08-24T10:54:53;29.54;40.16
74224;SHT31;62585;49.706;18.216;2023-08-24T10:57:26;29.51;40.34
74224;SHT31;62585;49.706;18.216;2023-08-24T11:00:09;29.79;40.02
74224;SHT31;62585;49.706;18.216;2023-08-24T11:02:46;29.88;39.15
74224;SHT31;62585;49.706;18.216;2023-08-24T11:05:16;29.83;38.38
74224;SHT31;62585;49.706;18.216;2023-08-24T11:07:49;29.86;39.62
74224;SHT31;62585;49.706;18.216;2023-08-24T11:10:16;29.88;38.92
74224;SHT31;62585;49.706;18.216;2023-08-24T11:15:34;29.68;39.38
74224;SHT31;62585;49.706;18.216;2023-08-24T11:18:22;30.05;38.76
74224;SHT31;62585;49.706;18.216;2023-08-24T11:23:19;30.29;37.95
74224;SHT31;62585;49.706;18.216;2023-08-24T11:25:45;29.73;37.93
74224;SHT31;62585;49.706;18.216;2023-08-24T11:28:17;29.66;36.63
74224;SHT31;62585;49.706;18.216;2023-08-24T11:30:43;30.06;38.37
74224;SHT31;62585;49.706;18.216;2023-08-24T11:33:11;30.23;38.26
74224;SHT31;62585;49.706;18.216;2023-08-24T11:35:37;30.37;37.61
74224;SHT31;62585;49.706;18.216;2023-08-24T11:38:03;30.61;37.47
74224;SHT31;62585;49.706;18.216;2023-08-24T11:40:29;30.71;38.49
74224;SHT31;62585;49.706;18.216;2023-08-24T11:42:56;30.60;37.63
74224;SHT31;62585;49.706;18.216;2023-08-24T11:45:22;30.61;37.18
74224;SHT31;62585;49.706;18.216;2023-08-24T11:47:49;30.91;36.83
74224;SHT31;62585;49.706;18.216;2023-08-24T11:50:16;31.06;35.66
74224;SHT31;62585;49.706;18.216;2023-08-24T11:52:43;30.92;35.78
74224;SHT31;62585;49.706;18.216;2023-08-24T11:55:09;30.56;36.17
74224;SHT31;62585;49.706;18.216;2023-08-24T11:57:36;30.38;35.43
74224;SHT31;62585;49.706;18.216;2023-08-24T12:00:03;30.48;37.86
74224;SHT31;62585;49.706;18.216;2023-08-24T12:02:32;30.76;36.41
74224;SHT31;62585;49.706;18.216;2023-08-24T12:04:58;30.84;35.47
74224;SHT31;62585;49.706;18.216;2023-08-24T12:07:25;30.99;35.44
74224;SHT31;62585;49.706;18.216;2023-08-24T12:09:54;31.09;35.65
74224;SHT31;62585;49.706;18.216;2023-08-24T12:12:21;31.16;34.20
74224;SHT31;62585;49.706;18.216;2023-08-24T12:14:49;30.85;35.45
74224;SHT31;62585;49.706;18.216;2023-08-24T12:17:16;30.72;38.57
74224;SHT31;62585;49.706;18.216;2023-08-24T12:19:44;30.98;37.24
74224;SHT31;62585;49.706;18.216;2023-08-24T12:22:15;31.59;36.14
74224;SHT31;62585;49.706;18.216;2023-08-24T12:24:45;31.63;38.20
74224;SHT31;62585;49.706;18.216;2023-08-24T12:27:18;31.71;38.40
74224;SHT31;62585;49.706;18.216;2023-08-24T12:29:45;31.76;35.35
74224;SHT31;62585;49.706;18.216;2023-08-24T12:32:11;31.77;35.16
74224;SHT31;62585;49.706;18.216;2023-08-24T12:34:37;31.53;34.83
74224;SHT31;62585;49.706;18.216;2023-08-24T12:37:02;31.71;36.93
74224;SHT31;62585;49.706;18.216;2023-08-24T12:39:35;31.76;36.70
74224;SHT31;62585;49.706;18.216;2023-08-24T12:42:02;31.91;35.21
74224;SHT31;62585;49.706;18.216;2023-08-24T12:44:28;31.81;33.29
74224;SHT31;62585;49.706;18.216;2023-08-24T12:46:54;31.84;33.25
74224;SHT31;62585;49.706;18.216;2023-08-24T12:49:19;31.95;33.14
74224;SHT31;62585;49.706;18.216;2023-08-24T12:51:45;32.24;34.06
74224;SHT31;62585;49.706;18.216;2023-08-24T12:54:11;32.56;36.15
74224;SHT31;62585;49.706;18.216;2023-08-24T12:56:40;32.62;34.31
74224;SHT31;62585;49.706;18.216;2023-08-24T12:59:06;32.56;33.76
74224;SHT31;62585;49.706;18.216;2023-08-24T13:01:32;32.59;30.95
74224;SHT31;62585;49.706;18.216;2023-08-24T13:03:58;32.55;32.13
74224;SHT31;62585;49.706;18.216;2023-08-24T13:06:24;32.25;33.47
74224;SHT31;62585;49.706;18.216;2023-08-24T13:08:50;32.22;34.05
74224;SHT31;62585;49.706;18.216;2023-08-24T13:11:16;32.08;33.95
74224;SHT31;62585;49.706;18.216;2023-08-24T13:13:41;32.05;34.42
74224;SHT31;62585;49.706;18.216;2023-08-24T13:16:07;32.28;34.08
74224;SHT31;62585;49.706;18.216;2023-08-24T13:18:33;32.31;34.05
74224;SHT31;62585;49.706;18.216;2023-08-24T13:20:59;32.18;34.13
74224;SHT31;62585;49.706;18.216;2023-08-24T13:23:24;32.22;33.12
74224;SHT31;62585;49.706;18.216;2023-08-24T13:25:51;32.38;33.99
74224;SHT31;62585;49.706;18.216;2023-08-24T13:28:16;32.32;31.28
74224;SHT31;62585;49.706;18.216;2023-08-24T13:30:42;32.31;33.07
74224;SHT31;62585;49.706;18.216;2023-08-24T13:33:08;32.18;34.91
74224;SHT31;62585;49.706;18.216;2023-08-24T13:35:34;31.97;34.68
74224;SHT31;62585;49.706;18.216;2023-08-24T13:38:00;32.49;35.48
74224;SHT31;62585;49.706;18.216;2023-08-24T13:40:26;32.49;34.37
74224;SHT31;62585;49.706;18.216;2023-08-24T13:42:51;32.36;35.29
74224;SHT31;62585;49.706;18.216;2023-08-24T13:45:17;32.09;33.93
74224;SHT31;62585;49.706;18.216;2023-08-24T13:47:44;31.90;33.55
74224;SHT31;62585;49.706;18.216;2023-08-24T13:50:10;32.02;34.66
74224;SHT31;62585;49.706;18.216;2023-08-24T13:52:35;32.08;34.04
74224;SHT31;62585;49.706;18.216;2023-08-24T13:55:02;32.32;34.62
74224;SHT31;62585;49.706;18.216;2023-08-24T13:57:29;32.56;31.91
74224;SHT31;62585;49.706;18.216;2023-08-24T13:59:55;32.55;31.62
74224;SHT31;62585;49.706;18.216;2023-08-24T14:02:21;32.70;34.09
74224;SHT31;62585;49.706;18.216;2023-08-24T14:04:47;32.76;33.34
74224;SHT31;62585;49.706;18.216;2023-08-24T14:07:12;32.73;33.93
74224;SHT31;62585;49.706;18.216;2023-08-24T14:09:38;32.48;33.33
74224;SHT31;62585;49.706;18.216;2023-08-24T14:17:20;32.48;34.02
74224;SHT31;62585;49.706;18.216;2023-08-24T14:19:46;32.60;33.42
74224;SHT31;62585;49.706;18.216;2023-08-24T14:22:12;32.18;34.00
74224;SHT31;62585;49.706;18.216;2023-08-24T14:24:38;32.09;33.01
74224;SHT31;62585;49.706;18.216;2023-08-24T14:27:03;32.55;32.72
74224;SHT31;62585;49.706;18.216;2023-08-24T14:29:29;32.53;32.51
74224;SHT31;62585;49.706;18.216;2023-08-24T14:31:55;32.38;32.53
74224;SHT31;62585;49.706;18.216;2023-08-24T14:34:21;32.72;32.02
74224;SHT31;62585;49.706;18.216;2023-08-24T14:36:46;32.88;33.17
74224;SHT31;62585;49.706;18.216;2023-08-24T14:39:12;32.93;32.13
74224;SHT31;62585;49.706;18.216;2023-08-24T14:41:39;32.83;31.53
74224;SHT31;62585;49.706;18.216;2023-08-24T14:44:04;32.79;33.59
74224;SHT31;62585;49.706;18.216;2023-08-24T14:46:30;32.93;32.65
74224;SHT31;62585;49.706;18.216;2023-08-24T14:48:56;32.46;32.62
74224;SHT31;62585;49.706;18.216;2023-08-24T14:51:22;32.36;33.16
74224;SHT31;62585;49.706;18.216;2023-08-24T14:53:48;32.19;32.60
74224;SHT31;62585;49.706;18.216;2023-08-24T14:56:13;32.39;32.89
74224;SHT31;62585;49.706;18.216;2023-08-24T14:58:39;32.39;33.17
74224;SHT31;62585;49.706;18.216;2023-08-24T15:01:05;32.52;32.63
74224;SHT31;62585;49.706;18.216;2023-08-24T15:03:31;32.51;32.07
74224;SHT31;62585;49.706;18.216;2023-08-24T15:06:01;32.60;32.16
74224;SHT31;62585;49.706;18.216;2023-08-24T15:08:30;32.07;32.36
74224;SHT31;62585;49.706;18.216;2023-08-24T15:10:56;32.31;32.74
74224;SHT31;62585;49.706;18.216;2023-08-24T15:13:23;32.19;33.27
74224;SHT31;62585;49.706;18.216;2023-08-24T15:15:49;32.07;34.28
74224;SHT31;62585;49.706;18.216;2023-08-24T15:18:15;32.09;33.52
74224;SHT31;62585;49.706;18.216;2023-08-24T15:20:40;31.91;33.83
74224;SHT31;62585;49.706;18.216;2023-08-24T15:23:06;32.21;33.45
74224;SHT31;62585;49.706;18.216;2023-08-24T15:25:33;32.31;34.20
74224;SHT31;62585;49.706;18.216;2023-08-24T15:27:59;32.40;33.29
74224;SHT31;62585;49.706;18.216;2023-08-24T15:30:25;32.19;34.85
74224;SHT31;62585;49.706;18.216;2023-08-24T15:32:51;31.97;36.49
74224;SHT31;62585;49.706;18.216;2023-08-24T15:35:16;31.97;36.17
74224;SHT31;62585;49.706;18.216;2023-08-24T15:37:42;31.67;38.42